sensor_id;sensor_type;location;lat;lon;timestamp;P1;durP1;ratioP1;P2;durP2;ratioP2
20154;SDS011;10238;49.556;10.956;2023-02-15T00:02:21;29.05;;;12.80;;
20154;SDS011;10238;49.556;10.956;2023-02-15T00:05:09;31.20;;;14.18;;
20154;SDS011;10238;49.556;10.956;2023-02-15T00:07:57;29.83;;;12.88;;
20154;SDS011;10238;49.556;10.956;2023-02-15T00:10:44;22.50;;;11.35;;
20154;SDS011;10238;49.556;10.956;2023-02-15T00:13:33;24.05;;;12.23;;
20154;SDS011;10238;49.556;10.956;2023-02-15T00:16:24;31.13;;;13.18;;
20154;SDS011;10238;49.556;10.956;2023-02-15T00:19:12;24.63;;;12.00;;
20154;SDS011;10238;49.556;10.956;2023-02-15T00:22:02;26.83;;;12.00;;
20154;SDS011;10238;49.556;10.956;2023-02-15T00:24:49;24.77;;;11.57;;
20154;SDS011;10238;49.556;10.956;2023-02-15T00:27:37;28.60;;;12.75;;
20154;SDS011;10238;49.556;10.956;2023-02-15T00:30:26;21.95;;;10.95;;
20154;SDS011;10238;49.556;10.956;2023-02-15T00:33:14;23.92;;;11.55;;
20154;SDS011;10238;49.556;10.956;2023-02-15T00:36:02;30.27;;;13.43;;
20154;SDS011;10238;49.556;10.956;2023-02-15T00:38:51;37.08;;;14.02;;
20154;SDS011;10238;49.556;10.956;2023-02-15T00:41:39;24.70;;;12.32;;
20154;SDS011;10238;49.556;10.956;2023-02-15T00:44:27;29.25;;;13.50;;
20154;SDS011;10238;49.556;10.956;2023-02-15T00:47:16;28.15;;;13.75;;
20154;SDS011;10238;49.556;10.956;2023-02-15T00:50:04;24.13;;;12.63;;
20154;SDS011;10238;49.556;10.956;2023-02-15T00:52:53;21.98;;;11.40;;
20154;SDS011;10238;49.556;10.956;2023-02-15T00:55:40;23.27;;;11.30;;
20154;SDS011;10238;49.556;10.956;2023-02-15T00:58:28;20.88;;;10.30;;
20154;SDS011;10238;49.556;10.956;2023-02-15T01:01:17;22.65;;;12.02;;
20154;SDS011;10238;49.556;10.956;2023-02-15T01:04:08;24.30;;;11.73;;
20154;SDS011;10238;49.556;10.956;2023-02-15T01:06:56;21.13;;;10.63;;
20154;SDS011;10238;49.556;10.956;2023-02-15T01:09:43;24.45;;;12.50;;
20154;SDS011;10238;49.556;10.956;2023-02-15T01:12:31;22.90;;;11.77;;
20154;SDS011;10238;49.556;10.956;2023-02-15T01:15:19;25.08;;;12.32;;
20154;SDS011;10238;49.556;10.956;2023-02-15T01:18:07;24.02;;;13.15;;
20154;SDS011;10238;49.556;10.956;2023-02-15T01:20:56;27.05;;;12.30;;
20154;SDS011;10238;49.556;10.956;2023-02-15T01:23:44;25.33;;;12.95;;
20154;SDS011;10238;49.556;10.956;2023-02-15T01:26:32;20.83;;;11.48;;
20154;SDS011;10238;49.556;10.956;2023-02-15T01:29:20;20.33;;;11.43;;
20154;SDS011;10238;49.556;10.956;2023-02-15T01:32:07;23.38;;;12.23;;
20154;SDS011;10238;49.556;10.956;2023-02-15T01:34:55;26.33;;;12.18;;
20154;SDS011;10238;49.556;10.956;2023-02-15T01:37:44;19.90;;;10.48;;
20154;SDS011;10238;49.556;10.956;2023-02-15T01:40:32;21.70;;;12.35;;
20154;SDS011;10238;49.556;10.956;2023-02-15T01:43:20;22.05;;;11.73;;
20154;SDS011;10238;49.556;10.956;2023-02-15T01:46:08;24.88;;;12.10;;
20154;SDS011;10238;49.556;10.956;2023-02-15T01:49:02;23.45;;;11.02;;
20154;SDS011;10238;49.556;10.956;2023-02-15T01:51:56;24.15;;;11.85;;
20154;SDS011;10238;49.556;10.956;2023-02-15T01:54:45;22.27;;;11.10;;
20154;SDS011;10238;49.556;10.956;2023-02-15T01:57:35;24.33;;;11.32;;
20154;SDS011;10238;49.556;10.956;2023-02-15T02:00:23;20.60;;;11.30;;
20154;SDS011;10238;49.556;10.956;2023-02-15T02:03:11;22.58;;;11.07;;
20154;SDS011;10238;49.556;10.956;2023-02-15T02:05:59;22.70;;;11.35;;
20154;SDS011;10238;49.556;10.956;2023-02-15T02:08:47;22.40;;;12.05;;
20154;SDS011;10238;49.556;10.956;2023-02-15T02:11:37;19.85;;;10.73;;
20154;SDS011;10238;49.556;10.956;2023-02-15T02:14:27;20.27;;;10.88;;
20154;SDS011;10238;49.556;10.956;2023-02-15T02:17:17;26.98;;;11.82;;
20154;SDS011;10238;49.556;10.956;2023-02-15T02:20:17;28.63;;;12.40;;
20154;SDS011;10238;49.556;10.956;2023-02-15T02:23:56;20.60;;;9.88;;
20154;SDS011;10238;49.556;10.956;2023-02-15T02:27:29;24.08;;;11.30;;
20154;SDS011;10238;49.556;10.956;2023-02-15T02:30:37;21.38;;;11.40;;
20154;SDS011;10238;49.556;10.956;2023-02-15T02:33:48;20.83;;;10.93;;
20154;SDS011;10238;49.556;10.956;2023-02-15T02:36:52;25.45;;;12.00;;
20154;SDS011;10238;49.556;10.956;2023-02-15T02:39:46;18.25;;;10.10;;
20154;SDS011;10238;49.556;10.956;2023-02-15T02:42:43;21.83;;;11.00;;
20154;SDS011;10238;49.556;10.956;2023-02-15T02:45:43;20.75;;;11.30;;
20154;SDS011;10238;49.556;10.956;2023-02-15T02:48:40;22.33;;;11.43;;
20154;SDS011;10238;49.556;10.956;2023-02-15T02:51:29;20.88;;;10.98;;
20154;SDS011;10238;49.556;10.956;2023-02-15T02:54:17;22.88;;;11.38;;
20154;SDS011;10238;49.556;10.956;2023-02-15T02:57:06;25.25;;;12.15;;
20154;SDS011;10238;49.556;10.956;2023-02-15T02:59:56;22.17;;;11.18;;
20154;SDS011;10238;49.556;10.956;2023-02-15T03:02:52;26.05;;;12.48;;
20154;SDS011;10238;49.556;10.956;2023-02-15T03:05:45;23.10;;;10.63;;
20154;SDS011;10238;49.556;10.956;2023-02-15T03:08:41;28.48;;;13.50;;
20154;SDS011;10238;49.556;10.956;2023-02-15T03:11:33;22.05;;;11.95;;
20154;SDS011;10238;49.556;10.956;2023-02-15T03:14:20;19.75;;;10.27;;
20154;SDS011;10238;49.556;10.956;2023-02-15T03:17:08;18.50;;;9.88;;
20154;SDS011;10238;49.556;10.956;2023-02-15T03:20:01;22.63;;;10.63;;
20154;SDS011;10238;49.556;10.956;2023-02-15T03:22:56;18.67;;;9.65;;
20154;SDS011;10238;49.556;10.956;2023-02-15T03:25:53;25.45;;;11.30;;
20154;SDS011;10238;49.556;10.956;2023-02-15T03:28:47;20.92;;;10.38;;
20154;SDS011;10238;49.556;10.956;2023-02-15T03:31:43;21.67;;;11.88;;
20154;SDS011;10238;49.556;10.956;2023-02-15T03:34:40;22.52;;;12.20;;
20154;SDS011;10238;49.556;10.956;2023-02-15T03:37:28;23.42;;;12.02;;
20154;SDS011;10238;49.556;10.956;2023-02-15T03:40:26;18.67;;;9.18;;
20154;SDS011;10238;49.556;10.956;2023-02-15T03:43:40;22.15;;;10.82;;
20154;SDS011;10238;49.556;10.956;2023-02-15T03:46:35;26.90;;;10.65;;
20154;SDS011;10238;49.556;10.956;2023-02-15T03:49:32;19.98;;;9.70;;
20154;SDS011;10238;49.556;10.956;2023-02-15T03:52:29;19.65;;;9.65;;
20154;SDS011;10238;49.556;10.956;2023-02-15T03:55:21;20.45;;;10.32;;
20154;SDS011;10238;49.556;10.956;2023-02-15T03:58:09;24.05;;;11.30;;
20154;SDS011;10238;49.556;10.956;2023-02-15T04:01:23;20.35;;;9.88;;
20154;SDS011;10238;49.556;10.956;2023-02-15T04:04:37;26.23;;;11.75;;
20154;SDS011;10238;49.556;10.956;2023-02-15T04:07:29;23.73;;;11.00;;
20154;SDS011;10238;49.556;10.956;2023-02-15T04:10:17;20.35;;;10.35;;
20154;SDS011;10238;49.556;10.956;2023-02-15T04:13:23;24.80;;;12.20;;
20154;SDS011;10238;49.556;10.956;2023-02-15T04:16:17;23.40;;;11.32;;
20154;SDS011;10238;49.556;10.956;2023-02-15T04:19:05;21.25;;;10.35;;
20154;SDS011;10238;49.556;10.956;2023-02-15T04:22:10;21.98;;;11.30;;
20154;SDS011;10238;49.556;10.956;2023-02-15T04:25:16;17.75;;;10.30;;
20154;SDS011;10238;49.556;10.956;2023-02-15T04:28:03;21.65;;;10.85;;
20154;SDS011;10238;49.556;10.956;2023-02-15T04:30:53;21.15;;;11.07;;
20154;SDS011;10238;49.556;10.956;2023-02-15T04:33:40;21.15;;;10.40;;
20154;SDS011;10238;49.556;10.956;2023-02-15T04:36:30;18.55;;;9.50;;
20154;SDS011;10238;49.556;10.956;2023-02-15T04:39:18;19.65;;;9.63;;
20154;SDS011;10238;49.556;10.956;2023-02-15T04:42:06;20.80;;;10.13;;
20154;SDS011;10238;49.556;10.956;2023-02-15T04:44:53;21.85;;;10.88;;
20154;SDS011;10238;49.556;10.956;2023-02-15T04:47:41;25.08;;;11.25;;
20154;SDS011;10238;49.556;10.956;2023-02-15T04:50:29;22.83;;;11.00;;
20154;SDS011;10238;49.556;10.956;2023-02-15T04:53:19;22.92;;;10.43;;
20154;SDS011;10238;49.556;10.956;2023-02-15T04:56:07;23.35;;;10.85;;
20154;SDS011;10238;49.556;10.956;2023-02-15T04:58:54;22.35;;;10.65;;
20154;SDS011;10238;49.556;10.956;2023-02-15T05:01:42;18.73;;;9.38;;
20154;SDS011;10238;49.556;10.956;2023-02-15T05:04:30;24.10;;;10.80;;
20154;SDS011;10238;49.556;10.956;2023-02-15T05:07:19;23.83;;;10.55;;
20154;SDS011;10238;49.556;10.956;2023-02-15T05:10:08;20.55;;;10.43;;
20154;SDS011;10238;49.556;10.956;2023-02-15T05:12:56;18.65;;;10.30;;
20154;SDS011;10238;49.556;10.956;2023-02-15T05:15:46;21.17;;;10.35;;
20154;SDS011;10238;49.556;10.956;2023-02-15T05:18:35;21.20;;;10.25;;
20154;SDS011;10238;49.556;10.956;2023-02-15T05:21:23;21.40;;;10.88;;
20154;SDS011;10238;49.556;10.956;2023-02-15T05:24:11;21.00;;;9.80;;
20154;SDS011;10238;49.556;10.956;2023-02-15T05:27:17;18.25;;;10.00;;
20154;SDS011;10238;49.556;10.956;2023-02-15T05:30:22;20.75;;;9.90;;
20154;SDS011;10238;49.556;10.956;2023-02-15T05:33:10;17.75;;;9.10;;
20154;SDS011;10238;49.556;10.956;2023-02-15T05:35:58;16.95;;;8.95;;
20154;SDS011;10238;49.556;10.956;2023-02-15T05:38:47;20.13;;;9.88;;
20154;SDS011;10238;49.556;10.956;2023-02-15T05:41:35;17.38;;;9.38;;
20154;SDS011;10238;49.556;10.956;2023-02-15T05:44:24;22.17;;;11.13;;
20154;SDS011;10238;49.556;10.956;2023-02-15T05:47:12;16.67;;;9.15;;
20154;SDS011;10238;49.556;10.956;2023-02-15T05:49:59;20.23;;;10.10;;
20154;SDS011;10238;49.556;10.956;2023-02-15T05:52:48;20.63;;;10.10;;
20154;SDS011;10238;49.556;10.956;2023-02-15T05:55:37;21.48;;;10.23;;
20154;SDS011;10238;49.556;10.956;2023-02-15T05:58:25;17.15;;;8.95;;
20154;SDS011;10238;49.556;10.956;2023-02-15T06:01:16;16.85;;;9.52;;
20154;SDS011;10238;49.556;10.956;2023-02-15T06:06:56;17.25;;;8.98;;
20154;SDS011;10238;49.556;10.956;2023-02-15T06:09:44;18.58;;;10.32;;
20154;SDS011;10238;49.556;10.956;2023-02-15T06:12:33;19.52;;;9.82;;
20154;SDS011;10238;49.556;10.956;2023-02-15T06:15:22;20.73;;;10.27;;
20154;SDS011;10238;49.556;10.956;2023-02-15T06:18:12;21.23;;;10.55;;
20154;SDS011;10238;49.556;10.956;2023-02-15T06:21:01;21.80;;;10.90;;
20154;SDS011;10238;49.556;10.956;2023-02-15T06:23:49;21.60;;;11.57;;
20154;SDS011;10238;49.556;10.956;2023-02-15T06:26:38;20.67;;;9.77;;
20154;SDS011;10238;49.556;10.956;2023-02-15T06:29:27;18.60;;;9.48;;
20154;SDS011;10238;49.556;10.956;2023-02-15T06:32:16;21.98;;;11.43;;
20154;SDS011;10238;49.556;10.956;2023-02-15T06:35:06;21.00;;;11.20;;
20154;SDS011;10238;49.556;10.956;2023-02-15T06:37:55;22.25;;;10.20;;
20154;SDS011;10238;49.556;10.956;2023-02-15T06:40:44;22.58;;;11.20;;
20154;SDS011;10238;49.556;10.956;2023-02-15T06:43:33;23.77;;;11.85;;
20154;SDS011;10238;49.556;10.956;2023-02-15T06:46:23;19.50;;;10.50;;
20154;SDS011;10238;49.556;10.956;2023-02-15T06:49:11;20.45;;;10.27;;
20154;SDS011;10238;49.556;10.956;2023-02-15T06:52:02;21.90;;;12.18;;
20154;SDS011;10238;49.556;10.956;2023-02-15T06:54:51;22.63;;;10.40;;
20154;SDS011;10238;49.556;10.956;2023-02-15T06:57:40;20.60;;;11.93;;
20154;SDS011;10238;49.556;10.956;2023-02-15T07:00:29;21.60;;;11.25;;
20154;SDS011;10238;49.556;10.956;2023-02-15T07:03:17;23.38;;;11.88;;
20154;SDS011;10238;49.556;10.956;2023-02-15T07:06:06;20.35;;;11.15;;
20154;SDS011;10238;49.556;10.956;2023-02-15T07:08:57;24.08;;;12.10;;
20154;SDS011;10238;49.556;10.956;2023-02-15T07:11:46;20.95;;;11.20;;
20154;SDS011;10238;49.556;10.956;2023-02-15T07:14:52;25.00;;;11.35;;
20154;SDS011;10238;49.556;10.956;2023-02-15T07:17:41;22.02;;;12.27;;
20154;SDS011;10238;49.556;10.956;2023-02-15T07:20:31;22.35;;;11.85;;
20154;SDS011;10238;49.556;10.956;2023-02-15T07:23:22;20.35;;;10.70;;
20154;SDS011;10238;49.556;10.956;2023-02-15T07:26:12;22.05;;;11.60;;
20154;SDS011;10238;49.556;10.956;2023-02-15T07:29:01;22.20;;;11.68;;
20154;SDS011;10238;49.556;10.956;2023-02-15T07:31:50;21.10;;;11.75;;
20154;SDS011;10238;49.556;10.956;2023-02-15T07:34:39;20.85;;;11.02;;
20154;SDS011;10238;49.556;10.956;2023-02-15T07:37:28;23.40;;;11.93;;
20154;SDS011;10238;49.556;10.956;2023-02-15T07:40:17;20.13;;;10.55;;
20154;SDS011;10238;49.556;10.956;2023-02-15T07:43:10;19.38;;;10.75;;
20154;SDS011;10238;49.556;10.956;2023-02-15T07:46:00;21.77;;;11.10;;
20154;SDS011;10238;49.556;10.956;2023-02-15T07:48:49;23.75;;;11.95;;
20154;SDS011;10238;49.556;10.956;2023-02-15T07:51:38;22.70;;;11.88;;
20154;SDS011;10238;49.556;10.956;2023-02-15T07:54:27;24.50;;;12.45;;
20154;SDS011;10238;49.556;10.956;2023-02-15T07:57:16;21.15;;;10.90;;
20154;SDS011;10238;49.556;10.956;2023-02-15T08:00:07;19.27;;;11.07;;
20154;SDS011;10238;49.556;10.956;2023-02-15T08:02:57;24.60;;;11.27;;
20154;SDS011;10238;49.556;10.956;2023-02-15T08:06:00;25.52;;;11.80;;
20154;SDS011;10238;49.556;10.956;2023-02-15T08:08:49;26.77;;;12.40;;
20154;SDS011;10238;49.556;10.956;2023-02-15T08:11:38;23.58;;;12.00;;
20154;SDS011;10238;49.556;10.956;2023-02-15T08:14:28;28.13;;;12.65;;
20154;SDS011;10238;49.556;10.956;2023-02-15T08:17:19;27.80;;;12.13;;
20154;SDS011;10238;49.556;10.956;2023-02-15T08:20:08;24.23;;;12.27;;
20154;SDS011;10238;49.556;10.956;2023-02-15T08:22:57;23.65;;;11.48;;
20154;SDS011;10238;49.556;10.956;2023-02-15T08:25:46;20.67;;;11.35;;
20154;SDS011;10238;49.556;10.956;2023-02-15T08:28:35;25.40;;;11.45;;
20154;SDS011;10238;49.556;10.956;2023-02-15T08:31:24;24.30;;;11.77;;
20154;SDS011;10238;49.556;10.956;2023-02-15T08:34:15;20.95;;;10.48;;
20154;SDS011;10238;49.556;10.956;2023-02-15T08:37:06;20.85;;;10.25;;
20154;SDS011;10238;49.556;10.956;2023-02-15T08:39:54;23.35;;;11.55;;
20154;SDS011;10238;49.556;10.956;2023-02-15T08:42:43;25.30;;;12.23;;
20154;SDS011;10238;49.556;10.956;2023-02-15T08:45:32;20.33;;;10.40;;
20154;SDS011;10238;49.556;10.956;2023-02-15T08:48:21;24.92;;;12.23;;
20154;SDS011;10238;49.556;10.956;2023-02-15T08:51:12;24.55;;;11.40;;
20154;SDS011;10238;49.556;10.956;2023-02-15T08:54:02;23.33;;;12.00;;
20154;SDS011;10238;49.556;10.956;2023-02-15T08:56:52;21.70;;;11.55;;
20154;SDS011;10238;49.556;10.956;2023-02-15T08:59:40;23.52;;;11.90;;
20154;SDS011;10238;49.556;10.956;2023-02-15T09:02:29;20.42;;;10.68;;
20154;SDS011;10238;49.556;10.956;2023-02-15T09:05:18;23.08;;;11.07;;
20154;SDS011;10238;49.556;10.956;2023-02-15T09:08:08;25.23;;;12.05;;
20154;SDS011;10238;49.556;10.956;2023-02-15T09:11:04;24.23;;;11.95;;
20154;SDS011;10238;49.556;10.956;2023-02-15T09:13:55;24.23;;;11.65;;
20154;SDS011;10238;49.556;10.956;2023-02-15T09:16:45;22.27;;;11.05;;
20154;SDS011;10238;49.556;10.956;2023-02-15T09:19:37;22.60;;;11.40;;
20154;SDS011;10238;49.556;10.956;2023-02-15T09:22:26;19.95;;;10.57;;
20154;SDS011;10238;49.556;10.956;2023-02-15T09:25:17;21.95;;;11.60;;
20154;SDS011;10238;49.556;10.956;2023-02-15T09:28:06;23.77;;;11.45;;
20154;SDS011;10238;49.556;10.956;2023-02-15T09:30:56;22.67;;;10.85;;
20154;SDS011;10238;49.556;10.956;2023-02-15T09:33:50;19.38;;;10.50;;
20154;SDS011;10238;49.556;10.956;2023-02-15T09:36:39;22.73;;;10.88;;
20154;SDS011;10238;49.556;10.956;2023-02-15T09:39:28;22.65;;;12.18;;
20154;SDS011;10238;49.556;10.956;2023-02-15T09:42:36;22.27;;;10.90;;
20154;SDS011;10238;49.556;10.956;2023-02-15T09:45:42;20.45;;;10.25;;
20154;SDS011;10238;49.556;10.956;2023-02-15T09:48:42;24.27;;;12.23;;
20154;SDS011;10238;49.556;10.956;2023-02-15T09:54:50;23.90;;;11.60;;
20154;SDS011;10238;49.556;10.956;2023-02-15T09:57:56;22.48;;;11.23;;
20154;SDS011;10238;49.556;10.956;2023-02-15T10:00:55;22.25;;;10.65;;
20154;SDS011;10238;49.556;10.956;2023-02-15T10:03:53;21.00;;;10.48;;
20154;SDS011;10238;49.556;10.956;2023-02-15T10:06:53;28.75;;;12.50;;
20154;SDS011;10238;49.556;10.956;2023-02-15T10:09:54;22.95;;;11.85;;
20154;SDS011;10238;49.556;10.956;2023-02-15T10:12:59;22.23;;;12.02;;
20154;SDS011;10238;49.556;10.956;2023-02-15T10:16:05;26.27;;;11.63;;
20154;SDS011;10238;49.556;10.956;2023-02-15T10:19:08;23.85;;;12.15;;
20154;SDS011;10238;49.556;10.956;2023-02-15T10:22:06;23.75;;;11.50;;
20154;SDS011;10238;49.556;10.956;2023-02-15T10:25:12;24.27;;;11.35;;
20154;SDS011;10238;49.556;10.956;2023-02-15T10:28:13;24.15;;;11.80;;
20154;SDS011;10238;49.556;10.956;2023-02-15T10:31:07;23.13;;;11.80;;
20154;SDS011;10238;49.556;10.956;2023-02-15T10:34:06;26.00;;;13.13;;
20154;SDS011;10238;49.556;10.956;2023-02-15T10:37:09;22.95;;;11.82;;
20154;SDS011;10238;49.556;10.956;2023-02-15T10:40:12;24.45;;;11.63;;
20154;SDS011;10238;49.556;10.956;2023-02-15T10:43:14;22.45;;;10.95;;
20154;SDS011;10238;49.556;10.956;2023-02-15T10:46:16;25.58;;;11.73;;
20154;SDS011;10238;49.556;10.956;2023-02-15T10:49:26;26.38;;;11.07;;
20154;SDS011;10238;49.556;10.956;2023-02-15T10:52:37;21.25;;;11.13;;
20154;SDS011;10238;49.556;10.956;2023-02-15T10:55:42;19.75;;;10.05;;
20154;SDS011;10238;49.556;10.956;2023-02-15T10:58:42;22.05;;;11.25;;
20154;SDS011;10238;49.556;10.956;2023-02-15T11:01:55;24.08;;;11.27;;
20154;SDS011;10238;49.556;10.956;2023-02-15T11:05:02;22.92;;;11.10;;
20154;SDS011;10238;49.556;10.956;2023-02-15T11:08:11;22.27;;;11.02;;
20154;SDS011;10238;49.556;10.956;2023-02-15T11:11:01;24.00;;;11.65;;
20154;SDS011;10238;49.556;10.956;2023-02-15T11:13:54;22.60;;;10.35;;
20154;SDS011;10238;49.556;10.956;2023-02-15T11:16:49;20.42;;;10.68;;
20154;SDS011;10238;49.556;10.956;2023-02-15T11:19:41;24.48;;;11.82;;
20154;SDS011;10238;49.556;10.956;2023-02-15T11:22:37;21.15;;;10.43;;
20154;SDS011;10238;49.556;10.956;2023-02-15T11:25:28;21.98;;;11.35;;
20154;SDS011;10238;49.556;10.956;2023-02-15T11:28:21;22.75;;;12.15;;
20154;SDS011;10238;49.556;10.956;2023-02-15T11:31:19;19.30;;;9.95;;
20154;SDS011;10238;49.556;10.956;2023-02-15T11:34:27;21.33;;;11.00;;
20154;SDS011;10238;49.556;10.956;2023-02-15T11:37:23;24.63;;;12.07;;
20154;SDS011;10238;49.556;10.956;2023-02-15T11:40:19;22.63;;;11.73;;
20154;SDS011;10238;49.556;10.956;2023-02-15T11:43:11;24.23;;;12.02;;
20154;SDS011;10238;49.556;10.956;2023-02-15T11:46:07;21.35;;;12.00;;
20154;SDS011;10238;49.556;10.956;2023-02-15T11:51:56;22.08;;;12.15;;
20154;SDS011;10238;49.556;10.956;2023-02-15T11:54:48;24.33;;;12.18;;
20154;SDS011;10238;49.556;10.956;2023-02-15T11:57:39;20.98;;;10.88;;
20154;SDS011;10238;49.556;10.956;2023-02-15T12:00:32;23.58;;;12.13;;
20154;SDS011;10238;49.556;10.956;2023-02-15T12:03:27;21.15;;;10.77;;
20154;SDS011;10238;49.556;10.956;2023-02-15T12:06:32;20.70;;;12.00;;
20154;SDS011;10238;49.556;10.956;2023-02-15T12:09:26;19.50;;;10.65;;
20154;SDS011;10238;49.556;10.956;2023-02-15T12:12:22;21.83;;;11.27;;
20154;SDS011;10238;49.556;10.956;2023-02-15T12:15:12;23.05;;;11.80;;
20154;SDS011;10238;49.556;10.956;2023-02-15T12:18:01;24.02;;;12.48;;
20154;SDS011;10238;49.556;10.956;2023-02-15T12:20:48;20.45;;;11.05;;
20154;SDS011;10238;49.556;10.956;2023-02-15T12:23:42;22.85;;;11.93;;
20154;SDS011;10238;49.556;10.956;2023-02-15T12:26:41;18.98;;;11.45;;
20154;SDS011;10238;49.556;10.956;2023-02-15T12:29:30;23.50;;;11.98;;
20154;SDS011;10238;49.556;10.956;2023-02-15T12:32:28;21.23;;;12.60;;
20154;SDS011;10238;49.556;10.956;2023-02-15T12:35:24;18.55;;;12.00;;
20154;SDS011;10238;49.556;10.956;2023-02-15T12:38:21;20.05;;;12.85;;
20154;SDS011;10238;49.556;10.956;2023-02-15T12:41:22;20.23;;;11.25;;
20154;SDS011;10238;49.556;10.956;2023-02-15T12:44:16;18.55;;;11.48;;
20154;SDS011;10238;49.556;10.956;2023-02-15T12:47:17;22.13;;;13.02;;
20154;SDS011;10238;49.556;10.956;2023-02-15T12:50:14;22.15;;;12.18;;
20154;SDS011;10238;49.556;10.956;2023-02-15T12:53:15;23.92;;;13.52;;
20154;SDS011;10238;49.556;10.956;2023-02-15T12:56:06;24.35;;;13.07;;
20154;SDS011;10238;49.556;10.956;2023-02-15T12:59:03;18.25;;;10.88;;
20154;SDS011;10238;49.556;10.956;2023-02-15T13:01:53;25.80;;;13.32;;
20154;SDS011;10238;49.556;10.956;2023-02-15T13:04:46;20.05;;;12.05;;
20154;SDS011;10238;49.556;10.956;2023-02-15T13:07:36;18.92;;;10.60;;
20154;SDS011;10238;49.556;10.956;2023-02-15T13:10:31;19.08;;;11.82;;
20154;SDS011;10238;49.556;10.956;2023-02-15T13:13:27;26.67;;;14.05;;
20154;SDS011;10238;49.556;10.956;2023-02-15T13:16:21;16.25;;;10.25;;
20154;SDS011;10238;49.556;10.956;2023-02-15T13:19:18;16.58;;;10.38;;
20154;SDS011;10238;49.556;10.956;2023-02-15T13:22:16;23.38;;;12.85;;
20154;SDS011;10238;49.556;10.956;2023-02-15T13:25:10;22.25;;;13.55;;
20154;SDS011;10238;49.556;10.956;2023-02-15T13:28:04;18.05;;;11.88;;
20154;SDS011;10238;49.556;10.956;2023-02-15T13:33:48;21.88;;;12.55;;
20154;SDS011;10238;49.556;10.956;2023-02-15T13:36:41;19.17;;;10.70;;
20154;SDS011;10238;49.556;10.956;2023-02-15T13:39:38;19.80;;;11.05;;
20154;SDS011;10238;49.556;10.956;2023-02-15T13:42:34;21.08;;;12.00;;
20154;SDS011;10238;49.556;10.956;2023-02-15T13:45:30;24.00;;;13.50;;
20154;SDS011;10238;49.556;10.956;2023-02-15T13:48:28;24.90;;;12.27;;
20154;SDS011;10238;49.556;10.956;2023-02-15T13:51:38;19.55;;;12.57;;
20154;SDS011;10238;49.556;10.956;2023-02-15T13:54:47;27.02;;;15.25;;
20154;SDS011;10238;49.556;10.956;2023-02-15T13:58:01;20.98;;;12.43;;
20154;SDS011;10238;49.556;10.956;2023-02-15T14:01:08;21.55;;;12.90;;
20154;SDS011;10238;49.556;10.956;2023-02-15T14:04:16;23.02;;;14.40;;
20154;SDS011;10238;49.556;10.956;2023-02-15T14:07:31;19.60;;;12.13;;
20154;SDS011;10238;49.556;10.956;2023-02-15T14:17:18;25.95;;;13.52;;
20154;SDS011;10238;49.556;10.956;2023-02-15T14:20:17;27.58;;;14.60;;
20154;SDS011;10238;49.556;10.956;2023-02-15T14:23:20;23.70;;;14.25;;
20154;SDS011;10238;49.556;10.956;2023-02-15T14:26:25;23.83;;;13.82;;
20154;SDS011;10238;49.556;10.956;2023-02-15T14:29:29;23.35;;;14.07;;
20154;SDS011;10238;49.556;10.956;2023-02-15T14:32:34;25.35;;;14.90;;
20154;SDS011;10238;49.556;10.956;2023-02-15T14:35:29;23.48;;;14.50;;
20154;SDS011;10238;49.556;10.956;2023-02-15T14:38:21;24.73;;;14.95;;
20154;SDS011;10238;49.556;10.956;2023-02-15T14:41:36;26.10;;;15.70;;
20154;SDS011;10238;49.556;10.956;2023-02-15T14:44:35;22.65;;;12.88;;
20154;SDS011;10238;49.556;10.956;2023-02-15T14:47:31;23.73;;;14.38;;
20154;SDS011;10238;49.556;10.956;2023-02-15T14:50:38;22.42;;;13.85;;
20154;SDS011;10238;49.556;10.956;2023-02-15T14:53:35;24.50;;;14.52;;
20154;SDS011;10238;49.556;10.956;2023-02-15T14:56:25;23.23;;;13.75;;
20154;SDS011;10238;49.556;10.956;2023-02-15T14:59:15;24.05;;;13.48;;
20154;SDS011;10238;49.556;10.956;2023-02-15T15:02:09;23.95;;;14.40;;
20154;SDS011;10238;49.556;10.956;2023-02-15T15:05:06;23.80;;;14.10;;
20154;SDS011;10238;49.556;10.956;2023-02-15T15:07:57;22.95;;;13.57;;
20154;SDS011;10238;49.556;10.956;2023-02-15T15:10:49;24.60;;;14.85;;
20154;SDS011;10238;49.556;10.956;2023-02-15T15:13:38;21.63;;;13.55;;
20154;SDS011;10238;49.556;10.956;2023-02-15T15:16:49;21.17;;;12.95;;
20154;SDS011;10238;49.556;10.956;2023-02-15T15:26:30;22.80;;;14.40;;
20154;SDS011;10238;49.556;10.956;2023-02-15T15:29:38;22.98;;;13.57;;
20154;SDS011;10238;49.556;10.956;2023-02-15T15:32:29;24.30;;;13.50;;
20154;SDS011;10238;49.556;10.956;2023-02-15T15:35:22;24.17;;;13.50;;
20154;SDS011;10238;49.556;10.956;2023-02-15T15:38:19;25.15;;;13.65;;
20154;SDS011;10238;49.556;10.956;2023-02-15T15:41:23;24.15;;;13.60;;
20154;SDS011;10238;49.556;10.956;2023-02-15T15:44:35;25.42;;;14.23;;
20154;SDS011;10238;49.556;10.956;2023-02-15T15:47:52;23.98;;;13.68;;
20154;SDS011;10238;49.556;10.956;2023-02-15T15:50:52;22.17;;;13.93;;
20154;SDS011;10238;49.556;10.956;2023-02-15T15:53:43;24.10;;;13.90;;
20154;SDS011;10238;49.556;10.956;2023-02-15T15:56:37;24.85;;;14.13;;
20154;SDS011;10238;49.556;10.956;2023-02-15T15:59:29;24.50;;;13.77;;
20154;SDS011;10238;49.556;10.956;2023-02-15T16:02:19;23.58;;;14.38;;
20154;SDS011;10238;49.556;10.956;2023-02-15T16:05:09;25.83;;;14.77;;
20154;SDS011;10238;49.556;10.956;2023-02-15T16:07:58;22.73;;;13.70;;
20154;SDS011;10238;49.556;10.956;2023-02-15T16:10:46;22.15;;;13.80;;
20154;SDS011;10238;49.556;10.956;2023-02-15T16:13:36;23.10;;;13.55;;
20154;SDS011;10238;49.556;10.956;2023-02-15T16:16:26;22.25;;;13.75;;
20154;SDS011;10238;49.556;10.956;2023-02-15T16:19:17;23.27;;;14.43;;
20154;SDS011;10238;49.556;10.956;2023-02-15T16:22:09;27.45;;;15.05;;
20154;SDS011;10238;49.556;10.956;2023-02-15T16:28:21;24.80;;;15.68;;
20154;SDS011;10238;49.556;10.956;2023-02-15T16:31:12;24.70;;;15.02;;
20154;SDS011;10238;49.556;10.956;2023-02-15T16:34:07;25.50;;;14.68;;
20154;SDS011;10238;49.556;10.956;2023-02-15T16:40:25;24.95;;;14.45;;
20154;SDS011;10238;49.556;10.956;2023-02-15T16:43:30;27.33;;;14.48;;
20154;SDS011;10238;49.556;10.956;2023-02-15T16:46:22;22.90;;;13.60;;
20154;SDS011;10238;49.556;10.956;2023-02-15T16:49:15;22.98;;;13.27;;
20154;SDS011;10238;49.556;10.956;2023-02-15T16:52:10;19.40;;;12.48;;
20154;SDS011;10238;49.556;10.956;2023-02-15T16:55:06;22.48;;;13.82;;
20154;SDS011;10238;49.556;10.956;2023-02-15T16:58:06;25.38;;;13.45;;
20154;SDS011;10238;49.556;10.956;2023-02-15T17:01:02;24.88;;;13.82;;
20154;SDS011;10238;49.556;10.956;2023-02-15T17:06:58;25.58;;;13.65;;
20154;SDS011;10238;49.556;10.956;2023-02-15T17:09:49;27.05;;;12.90;;
20154;SDS011;10238;49.556;10.956;2023-02-15T17:12:43;25.50;;;14.00;;
20154;SDS011;10238;49.556;10.956;2023-02-15T17:15:33;25.90;;;13.75;;
20154;SDS011;10238;49.556;10.956;2023-02-15T17:18:23;23.95;;;13.52;;